Sand Key, FL current weather conditions

sailwx.info

Wind from 320 at 20 knots gusting 25

Air temperature 21.0° C
Dewpoint 15.2° C

Last reported at 2016-Feb-09 08:50 UTC.
Time now 2016-Feb-09 10:03 UTC

Location: N 24°28' W 081°53'.
View on Google Maps.

See reports from other nearby stations

  
Tides and Currents Weather Stations Pressure Air Temp Water Temp Dewpoint Dewpoint Depression Visibility Wind Speed Wind Dir Waves Ship Positions
date/time (UTC)wind fromknots sea level pressurealtimeterstation pressurevisibilityair tempwater tempwave heightnotes
2016-Feb-09 08:50 320 20 gusting 25 21.0
2016-Feb-09 07:50 280 27 gusting 31 22.2
2016-Feb-09 06:50 280 24 gusting 29 22.0
2016-Feb-09 05:50 270 24 gusting 27 21.7
2016-Feb-09 04:50 270 20 gusting 24 21.5
2016-Feb-09 03:50 300 19 gusting 22 20.5
2016-Feb-09 02:50 300 17 gusting 20 20.3
2016-Feb-09 01:50 290 18 gusting 22 20.2
2016-Feb-09 00:50 290 13 gusting 15 19.8
2016-Feb-08 22:50 290 12 gusting 16 19.6
2016-Feb-08 21:50 260 10 gusting 12 19.2
2016-Feb-08 16:50 080 5 gusting 7 15.9
2016-Feb-08 15:50 070 7 gusting 11 15.6
2016-Feb-08 14:50 070 10 gusting 14 15.2
2016-Feb-08 13:50 070 13 gusting 16 15.0
2016-Feb-08 12:50 060 14 gusting 17 15.3
2016-Feb-08 11:50 350 11 gusting 14 17.3
2016-Feb-08 10:50 350 11 gusting 14 17.0
2016-Feb-08 09:50 350 13 gusting 16 17.0
2016-Feb-08 08:50 350 15 gusting 20 16.9
2016-Feb-08 07:50 350 15 gusting 19 17.0
2016-Feb-08 06:50 340 15 gusting 18 16.8
2016-Feb-08 05:50 340 16 gusting 19 16.9
2016-Feb-08 04:50 350 16 gusting 20 16.8
2016-Feb-08 03:50 340 19 gusting 22 16.9
2016-Feb-08 02:50 340 20 gusting 23 16.7
2016-Feb-08 01:50 340 17 gusting 20 16.4
2016-Feb-08 00:50 340 20 gusting 25 16.5
2016-Feb-07 22:50 340 20 gusting 26 16.3
2016-Feb-07 21:50 350 25 gusting 27 16.4
2016-Feb-07 20:50 350 23 gusting 27 16.5
2016-Feb-07 19:50 350 22 gusting 26 16.3
2016-Feb-07 18:50 350 23 gusting 27 16.9
2016-Feb-07 17:50 360 23 gusting 27 17.1
2016-Feb-07 16:50 360 24 gusting 27 16.8
2016-Feb-07 15:50 360 22 gusting 27 16.6
2016-Feb-07 14:50 360 26 gusting 31 16.3
2016-Feb-07 13:50 010 27 gusting 33 15.1
2016-Feb-07 12:50 360 31 gusting 37 14.7
2016-Feb-07 11:50 020 14 gusting 17 17.6
2016-Feb-07 10:50 360 13 gusting 16 18.1